Time;durP1;ratioP1;P1;durP2;ratioP2;P2;SDS_P1;SDS_P2;PMS_P1;PMS_P2;Temp;Humidity;BMP_temperature;BMP_pressure;BME280_temperature;BME280_humidity;BME280_pressure;Samples;Min_cycle;Max_cycle;Signal;HPM_P1;HPM_P2
2021/01/09 00:00:03;;;;;;;24.17;10.77;;;;;;;;;;5039559;28;20467;-68
2021/01/09 00:02:38;;;;;;;26.55;11.35;;;;;;;;;;5042593;28;20501;-68
2021/01/09 00:05:05;;;;;;;;;;;;;;;;;;5039544;28;20048;-69
2021/01/09 00:07:31;;;;;;;24.05;10.23;;;;;;;;;;5030839;28;19929;-69
2021/01/09 00:09:57;;;;;;;26.98;10.70;;;;;;;;;;5035262;28;20041;-68
2021/01/09 00:12:24;;;;;;;20.48;8.23;;;;;;;;;;5037592;28;20108;-69
2021/01/09 00:14:50;;;;;;;24.10;10.45;;;;;;;;;;5041953;28;20536;-68
2021/01/09 00:17:16;;;;;;;25.02;10.40;;;;;;;;;;5037368;28;20059;-68
2021/01/09 00:19:43;;;;;;;22.83;10.13;;;;;;;;;;5041811;28;20041;-69
2021/01/09 00:22:09;;;;;;;23.52;9.88;;;;;;;;;;5037744;28;20045;-68
2021/01/09 00:24:35;;;;;;;21.67;9.95;;;;;;;;;;5037060;28;20049;-68
2021/01/09 00:27:07;;;;;;;21.63;10.05;;;;;;;;;;5036556;28;20157;-68
2021/01/09 00:29:33;;;;;;;23.38;10.88;;;;;;;;;;5037270;28;20033;-68
2021/01/09 00:31:59;;;;;;;22.13;9.93;;;;;;;;;;5037728;28;20056;-68
2021/01/09 00:34:26;;;;;;;16.63;7.65;;;;;;;;;;5041432;28;20117;-68
2021/01/09 00:36:52;;;;;;;17.90;9.93;;;;;;;;;;5041047;28;20492;-68
2021/01/09 00:39:18;;;;;;;20.52;9.50;;;;;;;;;;5034053;28;20041;-68
2021/01/09 00:41:44;;;;;;;24.23;9.82;;;;;;;;;;5037843;28;20033;-68
2021/01/09 00:44:10;;;;;;;22.33;9.35;;;;;;;;;;5043529;28;20050;-68
2021/01/09 00:46:37;;;;;;;23.40;10.00;;;;;;;;;;5036199;28;20063;-68
2021/01/09 00:49:04;;;;;;;25.63;9.73;;;;;;;;;;5036087;28;20061;-68
2021/01/09 00:51:30;;;;;;;22.50;10.23;;;;;;;;;;5034287;28;20038;-68
2021/01/09 00:53:56;;;;;;;23.27;10.10;;;;;;;;;;5033801;28;20079;-68
2021/01/09 00:56:22;;;;;;;21.05;9.27;;;;;;;;;;5031978;28;20396;-68
2021/01/09 00:58:48;;;;;;;21.92;10.02;;;;;;;;;;5044747;28;20040;-68
2021/01/09 01:01:15;;;;;;;22.33;8.82;;;;;;;;;;5040715;28;20040;-68
2021/01/09 01:03:42;;;;;;;19.13;9.27;;;;;;;;;;5040072;28;20049;-68
2021/01/09 01:06:09;;;;;;;20.23;8.93;;;;;;;;;;5037625;28;20038;-68
2021/01/09 01:08:35;;;;;;;20.98;9.27;;;;;;;;;;5037827;28;20362;-68
2021/01/09 01:11:02;;;;;;;21.85;9.38;;;;;;;;;;5042693;28;20048;-68
2021/01/09 01:13:28;;;;;;;23.60;10.07;;;;;;;;;;5040875;28;20037;-69
2021/01/09 01:15:58;;;;;;;22.27;9.25;;;;;;;;;;5032573;28;20045;-68
2021/01/09 01:18:25;;;;;;;19.65;9.18;;;;;;;;;;5037575;28;20045;-68
2021/01/09 01:20:51;;;;;;;23.08;10.55;;;;;;;;;;5044693;28;20364;-68
2021/01/09 01:23:17;;;;;;;20.55;9.65;;;;;;;;;;5042420;28;20060;-68
2021/01/09 01:25:44;;;;;;;23.70;10.50;;;;;;;;;;5038651;28;20124;-68
2021/01/09 01:28:10;;;;;;;18.50;9.85;;;;;;;;;;5035539;28;20043;-69
2021/01/09 01:30:37;;;;;;;22.80;9.85;;;;;;;;;;5037959;28;20148;-68
2021/01/09 01:33:03;;;;;;;19.52;9.98;;;;;;;;;;5037205;28;20455;-68
2021/01/09 01:35:30;;;;;;;23.70;9.87;;;;;;;;;;5035888;28;20047;-69
2021/01/09 01:37:56;;;;;;;23.92;9.82;;;;;;;;;;5041543;28;20044;-69
2021/01/09 01:40:25;;;;;;;23.27;9.75;;;;;;;;;;5036205;28;20052;-69
2021/01/09 01:42:51;;;;;;;26.67;10.15;;;;;;;;;;5038339;28;20056;-69
2021/01/09 01:45:18;;;;;;;21.40;9.10;;;;;;;;;;5035961;28;20451;-68
2021/01/09 01:47:44;;;;;;;22.10;10.05;;;;;;;;;;5042327;28;20040;-68
2021/01/09 01:50:10;;;;;;;22.92;10.93;;;;;;;;;;5034620;28;20095;-68
2021/01/09 01:52:36;;;;;;;21.58;10.25;;;;;;;;;;5044454;28;20068;-69
2021/01/09 01:55:03;;;;;;;17.30;8.93;;;;;;;;;;5039846;28;20654;-68
2021/01/09 01:57:29;;;;;;;23.20;10.45;;;;;;;;;;5038532;28;20048;-69
2021/01/09 01:59:55;;;;;;;23.00;9.55;;;;;;;;;;5039188;28;20049;-68
2021/01/09 02:02:22;;;;;;;27.17;10.55;;;;;;;;;;5036523;28;20049;-68
2021/01/09 02:04:50;;;;;;;23.30;9.98;;;;;;;;;;5035184;28;20041;-68
2021/01/09 02:07:20;;;;;;;21.67;10.23;;;;;;;;;;5038550;28;20075;-68
2021/01/09 02:09:48;;;;;;;23.25;10.15;;;;;;;;;;5038784;28;20041;-69
2021/01/09 02:12:17;;;;;;;27.70;10.80;;;;;;;;;;5033987;28;20044;-69
2021/01/09 02:14:42;;;;;;;;;;;;;;;;;;5037589;28;20041;-68
2021/01/09 02:17:09;;;;;;;23.58;9.30;;;;;;;;;;5040958;28;20022;-69
2021/01/09 02:19:40;;;;;;;20.55;8.80;;;;;;;;;;5043881;28;20041;-68
2021/01/09 02:22:08;;;;;;;27.83;10.60;;;;;;;;;;5035562;28;20498;-68
2021/01/09 02:24:34;;;;;;;25.25;9.32;;;;;;;;;;5040787;28;20061;-68
2021/01/09 02:27:03;;;;;;;31.45;11.07;;;;;;;;;;5037723;28;20107;-69
2021/01/09 02:29:29;;;;;;;;;;;;;;;;;;5041173;28;20045;-69
2021/01/09 02:31:57;;;;;;;22.50;10.32;;;;;;;;;;5040899;28;19983;-68
2021/01/09 02:34:25;;;;;;;25.58;10.57;;;;;;;;;;5043005;28;20050;-69
2021/01/09 02:36:52;;;;;;;23.38;10.32;;;;;;;;;;5038157;28;20575;-69
2021/01/09 02:39:18;;;;;;;20.83;10.45;;;;;;;;;;5044546;28;20036;-69
2021/01/09 02:41:46;;;;;;;24.77;10.77;;;;;;;;;;5043358;28;20122;-68
2021/01/09 02:44:14;;;;;;;22.90;10.25;;;;;;;;;;5040749;28;20037;-69
2021/01/09 02:46:40;;;;;;;23.95;10.80;;;;;;;;;;5040309;28;20034;-68
2021/01/09 02:49:07;;;;;;;27.50;11.77;;;;;;;;;;5041305;28;20465;-69
2021/01/09 02:51:33;;;;;;;24.88;11.25;;;;;;;;;;5039261;28;20116;-69
2021/01/09 02:53:59;;;;;;;23.87;11.80;;;;;;;;;;5045025;28;20055;-69
2021/01/09 02:56:26;;;;;;;28.57;12.07;;;;;;;;;;5038784;28;20444;-69
2021/01/09 02:58:52;;;;;;;26.58;11.68;;;;;;;;;;5041375;28;20071;-69
2021/01/09 03:01:19;;;;;;;24.58;11.05;;;;;;;;;;5041973;28;20107;-69
2021/01/09 03:03:45;;;;;;;31.65;12.02;;;;;;;;;;5045947;28;20036;-69
2021/01/09 03:06:12;;;;;;;30.67;11.85;;;;;;;;;;5042316;28;20431;-69
2021/01/09 03:08:38;;;;;;;29.30;11.43;;;;;;;;;;5037495;28;20406;-69
2021/01/09 03:11:04;;;;;;;27.65;11.30;;;;;;;;;;5041113;28;20033;-69
2021/01/09 03:13:30;;;;;;;30.15;12.30;;;;;;;;;;5041804;28;20099;-69
2021/01/09 03:15:56;;;;;;;25.75;11.10;;;;;;;;;;5035414;28;20058;-69
2021/01/09 03:18:23;;;;;;;22.90;10.45;;;;;;;;;;5037662;28;20497;-69
2021/01/09 03:20:49;;;;;;;27.60;11.02;;;;;;;;;;5046411;28;20041;-69
2021/01/09 03:23:16;;;;;;;27.83;10.77;;;;;;;;;;5037642;28;20131;-68
2021/01/09 03:25:42;;;;;;;25.30;10.93;;;;;;;;;;5043982;28;20375;-68
2021/01/09 03:28:08;;;;;;;26.63;11.18;;;;;;;;;;5045712;28;20041;-69
2021/01/09 03:30:34;;;;;;;28.85;11.90;;;;;;;;;;5037726;28;20129;-69
2021/01/09 03:33:01;;;;;;;28.30;11.85;;;;;;;;;;5040066;28;20053;-69
2021/01/09 03:35:27;;;;;;;26.17;11.50;;;;;;;;;;5041966;28;20045;-68
2021/01/09 03:37:54;;;;;;;26.63;11.38;;;;;;;;;;5048376;28;20052;-69
2021/01/09 03:40:20;;;;;;;26.85;10.82;;;;;;;;;;5038692;28;20064;-68
2021/01/09 03:42:46;;;;;;;27.08;10.70;;;;;;;;;;5046370;28;20083;-68
2021/01/09 03:45:12;;;;;;;30.45;11.70;;;;;;;;;;5046403;28;20045;-68
2021/01/09 03:47:38;;;;;;;23.05;10.00;;;;;;;;;;5041249;28;20586;-68
2021/01/09 03:50:05;;;;;;;28.35;11.13;;;;;;;;;;5041779;28;20049;-69
2021/01/09 03:52:31;;;;;;;29.43;11.03;;;;;;;;;;5043085;28;20134;-68
2021/01/09 03:54:57;;;;;;;24.48;10.98;;;;;;;;;;5040227;28;20296;-68
2021/01/09 03:57:24;;;;;;;23.33;9.73;;;;;;;;;;5040764;28;20068;-68
2021/01/09 03:59:50;;;;;;;31.08;10.90;;;;;;;;;;5042312;28;20037;-69
2021/01/09 04:02:16;;;;;;;25.27;9.93;;;;;;;;;;5035208;28;20037;-69
2021/01/09 04:04:43;;;;;;;23.35;10.32;;;;;;;;;;5037892;28;20494;-69
2021/01/09 04:07:09;;;;;;;30.27;11.52;;;;;;;;;;5039211;28;20501;-68
2021/01/09 04:09:35;;;;;;;23.97;10.70;;;;;;;;;;5037212;28;20041;-68
2021/01/09 04:12:02;;;;;;;24.48;10.35;;;;;;;;;;5038230;28;20033;-68
2021/01/09 04:14:28;;;;;;;26.60;11.00;;;;;;;;;;5029347;28;20042;-69
2021/01/09 04:16:55;;;;;;;21.30;10.00;;;;;;;;;;5035304;28;20064;-69
2021/01/09 04:19:21;;;;;;;23.35;10.65;;;;;;;;;;5039491;28;20098;-69
2021/01/09 04:21:54;;;;;;;26.40;11.32;;;;;;;;;;5033443;28;20061;-69
2021/01/09 04:24:21;;;;;;;24.45;10.63;;;;;;;;;;5037386;28;20045;-68
2021/01/09 04:27:00;;;;;;;25.25;10.05;;;;;;;;;;5036778;28;20076;-69
2021/01/09 04:29:27;;;;;;;29.48;11.60;;;;;;;;;;5040581;28;20045;-68
2021/01/09 04:31:53;;;;;;;25.13;9.65;;;;;;;;;;5035829;28;20045;-68
2021/01/09 04:34:21;;;;;;;30.63;11.45;;;;;;;;;;5040058;28;20045;-69
2021/01/09 04:36:47;;;;;;;23.67;10.55;;;;;;;;;;5039525;28;20106;-68
2021/01/09 04:39:14;;;;;;;22.73;7.90;;;;;;;;;;5035657;28;20041;-69
2021/01/09 04:41:40;;;;;;;27.77;11.68;;;;;;;;;;5044741;28;20056;-68
2021/01/09 04:44:07;;;;;;;25.77;10.52;;;;;;;;;;5038535;28;20091;-68
2021/01/09 04:46:38;;;;;;;27.58;11.07;;;;;;;;;;5035050;28;20041;-68
2021/01/09 04:49:04;;;;;;;29.77;11.40;;;;;;;;;;5036546;28;20046;-69
2021/01/09 04:51:31;;;;;;;26.98;10.93;;;;;;;;;;5037918;28;20500;-69
2021/01/09 04:53:57;;;;;;;27.80;10.27;;;;;;;;;;5039363;28;20124;-69
2021/01/09 04:56:25;;;;;;;21.00;7.85;;;;;;;;;;5044408;28;20116;-68
2021/01/09 04:58:54;;;;;;;26.55;11.35;;;;;;;;;;5045546;28;20049;-69
2021/01/09 05:01:20;;;;;;;29.80;11.25;;;;;;;;;;5033830;28;20052;-68
2021/01/09 05:03:48;;;;;;;29.13;10.68;;;;;;;;;;5032078;28;20437;-69
2021/01/09 05:06:19;;;;;;;33.85;12.10;;;;;;;;;;5034182;28;20040;-68
2021/01/09 05:08:46;;;;;;;32.75;11.52;;;;;;;;;;5041332;28;20353;-69
2021/01/09 05:11:12;;;;;;;24.88;10.32;;;;;;;;;;5033641;28;20052;-69
2021/01/09 05:13:38;;;;;;;29.60;10.52;;;;;;;;;;5041064;28;20091;-69
2021/01/09 05:16:05;;;;;;;26.67;10.75;;;;;;;;;;5035725;28;20045;-69
2021/01/09 05:18:31;;;;;;;31.38;12.15;;;;;;;;;;5028631;28;20041;-68
2021/01/09 05:20:59;;;;;;;32.80;11.27;;;;;;;;;;5034697;28;20044;-69
2021/01/09 05:23:25;;;;;;;29.63;11.15;;;;;;;;;;5040967;28;20132;-69
2021/01/09 05:25:52;;;;;;;30.50;12.35;;;;;;;;;;5037848;28;20094;-69
2021/01/09 05:28:18;;;;;;;27.83;11.13;;;;;;;;;;5035399;28;20045;-69
2021/01/09 05:30:44;;;;;;;28.33;10.93;;;;;;;;;;5033301;28;20545;-69
2021/01/09 05:33:11;;;;;;;25.42;11.15;;;;;;;;;;5032788;28;20045;-68
2021/01/09 05:35:38;;;;;;;28.20;11.40;;;;;;;;;;5037189;28;20122;-69
2021/01/09 05:38:04;;;;;;;29.73;11.23;;;;;;;;;;5033292;28;20040;-69
2021/01/09 05:40:36;;;;;;;29.70;10.70;;;;;;;;;;5042411;28;20386;-68
2021/01/09 05:43:09;;;;;;;27.17;10.85;;;;;;;;;;5040401;28;20044;-69
2021/01/09 05:45:37;;;;;;;28.92;11.32;;;;;;;;;;5040150;28;20440;-69
2021/01/09 05:48:04;;;;;;;31.80;11.25;;;;;;;;;;5034582;28;20049;-69
2021/01/09 05:50:31;;;;;;;27.95;11.30;;;;;;;;;;5045004;28;20421;-69
2021/01/09 05:52:57;;;;;;;18.25;7.80;;;;;;;;;;5046964;28;20056;-69
2021/01/09 05:55:23;;;;;;;30.55;11.43;;;;;;;;;;5044247;28;20033;-68
2021/01/09 05:57:51;;;;;;;34.28;11.13;;;;;;;;;;5055245;28;20073;-69
2021/01/09 06:00:21;;;;;;;30.80;11.63;;;;;;;;;;5038137;28;20095;-69
2021/01/09 06:02:47;;;;;;;28.83;11.23;;;;;;;;;;5035908;28;20058;-69
2021/01/09 06:05:15;;;;;;;26.85;11.05;;;;;;;;;;5037097;28;20048;-69
2021/01/09 06:07:41;;;;;;;29.85;12.30;;;;;;;;;;5036402;28;20033;-69
2021/01/09 06:10:12;;;;;;;30.43;12.20;;;;;;;;;;5038902;28;20103;-69
2021/01/09 06:13:10;;;;;;;36.17;12.20;;;;;;;;;;5040025;28;20049;-69
2021/01/09 06:15:40;;;;;;;31.88;11.75;;;;;;;;;;5028368;28;20041;-69
2021/01/09 06:18:07;;;;;;;34.78;12.30;;;;;;;;;;5039151;28;20455;-68
2021/01/09 06:20:33;;;;;;;34.15;11.98;;;;;;;;;;5042974;28;20029;-68
2021/01/09 06:22:59;;;;;;;31.40;11.25;;;;;;;;;;5046155;28;20493;-69
2021/01/09 06:25:27;;;;;;;34.00;12.40;;;;;;;;;;5043262;28;20671;-69
2021/01/09 06:27:55;;;;;;;32.47;12.45;;;;;;;;;;5045904;28;20139;-69
2021/01/09 06:30:24;;;;;;;33.30;12.93;;;;;;;;;;5041478;28;20557;-69
2021/01/09 06:32:55;;;;;;;30.63;11.68;;;;;;;;;;5037381;28;20053;-69
2021/01/09 06:35:21;;;;;;;38.13;13.07;;;;;;;;;;5042063;28;20041;-69
2021/01/09 06:37:48;;;;;;;36.50;12.35;;;;;;;;;;5037734;28;20071;-69
2021/01/09 06:40:14;;;;;;;37.22;12.30;;;;;;;;;;5044578;28;20156;-69
2021/01/09 06:42:41;;;;;;;31.98;12.00;;;;;;;;;;5040902;28;20486;-69
2021/01/09 06:45:08;;;;;;;44.17;13.65;;;;;;;;;;5040967;28;20047;-69
2021/01/09 06:47:35;;;;;;;36.30;12.18;;;;;;;;;;5039325;28;20555;-69
2021/01/09 06:50:16;;;;;;;30.23;11.53;;;;;;;;;;5042611;28;20511;-69
2021/01/09 06:52:54;;;;;;;34.05;12.40;;;;;;;;;;5042049;28;20357;-69
2021/01/09 06:55:20;;;;;;;;;;;;;;;;;;5039286;28;20386;-69
2021/01/09 06:57:47;;;;;;;31.17;11.23;;;;;;;;;;5043453;28;19921;-69
2021/01/09 07:00:16;;;;;;;28.35;11.50;;;;;;;;;;5041722;28;20405;-69
2021/01/09 07:03:02;;;;;;;36.03;11.55;;;;;;;;;;5035723;28;20069;-69
2021/01/09 07:05:41;;;;;;;32.75;11.02;;;;;;;;;;5038565;28;20048;-69
2021/01/09 07:08:07;;;;;;;33.38;11.68;;;;;;;;;;5040545;28;20049;-69
2021/01/09 07:10:42;;;;;;;39.15;12.80;;;;;;;;;;5040204;28;20115;-69
2021/01/09 07:13:10;;;;;;;40.38;12.35;;;;;;;;;;5038620;28;20053;-69
2021/01/09 07:15:37;;;;;;;38.92;12.35;;;;;;;;;;5045524;28;20120;-69
2021/01/09 07:18:07;;;;;;;41.28;12.30;;;;;;;;;;5043239;28;20091;-69
2021/01/09 07:20:34;;;;;;;35.90;12.18;;;;;;;;;;5043759;28;20041;-69
2021/01/09 07:23:02;;;;;;;40.67;12.18;;;;;;;;;;5036524;28;20503;-69
2021/01/09 07:25:46;;;;;;;35.60;11.55;;;;;;;;;;5043877;28;20098;-68
2021/01/09 07:28:15;;;;;;;31.75;12.15;;;;;;;;;;5035820;28;20041;-69
2021/01/09 07:30:41;;;;;;;34.75;12.02;;;;;;;;;;5038871;28;20124;-69
2021/01/09 07:33:09;;;;;;;38.05;12.25;;;;;;;;;;5039551;28;20116;-69
2021/01/09 07:35:37;;;;;;;41.58;12.57;;;;;;;;;;5040996;28;20495;-69
2021/01/09 07:38:04;;;;;;;37.50;11.65;;;;;;;;;;5036945;28;20416;-68
2021/01/09 07:40:45;;;;;;;34.58;11.05;;;;;;;;;;5041891;28;20389;-69
2021/01/09 07:43:30;;;;;;;37.05;12.20;;;;;;;;;;5037071;28;20042;-69
2021/01/09 07:45:58;;;;;;;37.03;12.02;;;;;;;;;;5040325;28;20556;-69
2021/01/09 07:48:30;;;;;;;38.13;11.65;;;;;;;;;;5035085;28;20504;-68
2021/01/09 07:50:56;;;;;;;39.00;12.55;;;;;;;;;;5040786;28;20456;-70
2021/01/09 07:53:25;;;;;;;40.63;12.55;;;;;;;;;;5038676;28;20038;-69
2021/01/09 07:55:52;;;;;;;38.42;12.52;;;;;;;;;;5041881;28;20514;-69
2021/01/09 07:58:39;;;;;;;35.25;12.18;;;;;;;;;;5034340;28;20041;-69
2021/01/09 08:01:05;;;;;;;37.35;11.82;;;;;;;;;;5036726;28;20057;-69
2021/01/09 08:03:32;;;;;;;33.97;11.93;;;;;;;;;;5038126;28;20083;-68
2021/01/09 08:05:59;;;;;;;32.50;11.98;;;;;;;;;;5038644;28;20546;-72
2021/01/09 08:08:26;;;;;;;31.30;11.07;;;;;;;;;;5037487;28;20045;-69
2021/01/09 08:10:52;;;;;;;40.08;12.60;;;;;;;;;;5037642;28;20045;-69
2021/01/09 08:13:21;;;;;;;38.33;13.13;;;;;;;;;;5039851;28;20120;-69
2021/01/09 08:15:48;;;;;;;30.60;11.15;;;;;;;;;;5034082;28;20126;-69
2021/01/09 08:18:14;;;;;;;38.10;12.25;;;;;;;;;;5035633;28;20045;-69
2021/01/09 08:20:40;;;;;;;36.53;12.55;;;;;;;;;;5040328;28;20083;-69
2021/01/09 08:23:08;;;;;;;50.97;14.20;;;;;;;;;;5034901;28;20080;-69
2021/01/09 08:25:35;;;;;;;38.15;12.80;;;;;;;;;;5046370;28;20037;-69
2021/01/09 08:28:02;;;;;;;35.67;13.05;;;;;;;;;;5041883;28;20095;-69
2021/01/09 08:30:29;;;;;;;32.22;11.23;;;;;;;;;;5042574;28;20545;-69
2021/01/09 08:33:09;;;;;;;36.85;13.18;;;;;;;;;;5041130;28;20044;-69
2021/01/09 08:35:37;;;;;;;31.63;12.88;;;;;;;;;;5034643;28;20582;-69
2021/01/09 08:38:05;;;;;;;38.28;13.00;;;;;;;;;;5041503;28;20051;-70
2021/01/09 08:40:32;;;;;;;35.67;12.52;;;;;;;;;;5047951;28;20060;-69
2021/01/09 08:42:59;;;;;;;38.67;13.05;;;;;;;;;;5039044;28;20041;-69
2021/01/09 08:45:46;;;;;;;39.67;12.43;;;;;;;;;;5041191;28;20056;-69
2021/01/09 08:48:18;;;;;;;51.80;13.43;;;;;;;;;;5030993;28;20046;-69
2021/01/09 08:50:49;;;;;;;88.10;15.93;;;;;;;;;;5042704;28;20055;-69
2021/01/09 08:53:15;;;;;;;285.08;21.08;;;;;;;;;;5034031;28;20047;-69
2021/01/09 08:55:42;;;;;;;44.67;12.88;;;;;;;;;;5037677;28;20634;-69
2021/01/09 08:58:09;;;;;;;139.10;15.40;;;;;;;;;;5047628;28;20045;-69
2021/01/09 09:00:36;;;;;;;;;;;;;;;;;;5038168;28;20091;-69
2021/01/09 09:03:03;;;;;;;185.23;15.57;;;;;;;;;;5040846;28;19921;-69
2021/01/09 09:05:30;;;;;;;220.07;18.85;;;;;;;;;;5039101;28;20039;-69
2021/01/09 09:07:57;;;;;;;295.55;18.75;;;;;;;;;;5037665;28;20041;-69
2021/01/09 09:10:26;;;;;;;283.33;17.65;;;;;;;;;;5044306;28;20060;-69
2021/01/09 09:12:52;;;;;;;255.77;18.65;;;;;;;;;;5032655;28;20060;-69
2021/01/09 09:15:29;;;;;;;161.20;16.17;;;;;;;;;;5044446;28;20069;-69
2021/01/09 09:17:56;;;;;;;125.05;15.65;;;;;;;;;;5037914;28;20059;-69
2021/01/09 09:20:25;;;;;;;114.13;15.70;;;;;;;;;;5040254;28;20416;-70
2021/01/09 09:22:54;;;;;;;124.93;14.60;;;;;;;;;;5043141;28;20080;-69
2021/01/09 09:25:23;;;;;;;115.32;15.68;;;;;;;;;;5044633;28;20401;-69
2021/01/09 09:27:50;;;;;;;91.93;14.23;;;;;;;;;;5035291;28;20527;-69
2021/01/09 09:30:18;;;;;;;78.93;15.15;;;;;;;;;;5045574;28;20098;-69
2021/01/09 09:32:45;;;;;;;126.45;14.00;;;;;;;;;;5035247;28;20042;-70
2021/01/09 09:35:11;;;;;;;;;;;;;;;;;;5041131;28;20510;-69
2021/01/09 09:37:37;;;;;;;55.17;11.27;;;;;;;;;;5038401;28;19928;-69
2021/01/09 09:40:04;;;;;;;67.07;12.65;;;;;;;;;;5039043;28;20057;-69
2021/01/09 09:42:30;;;;;;;38.00;11.20;;;;;;;;;;5037854;28;20045;-68
2021/01/09 09:44:56;;;;;;;40.97;11.45;;;;;;;;;;5042217;28;20044;-70
2021/01/09 09:47:24;;;;;;;26.00;8.43;;;;;;;;;;5036515;28;20042;-70
2021/01/09 09:50:08;;;;;;;43.42;11.23;;;;;;;;;;5039353;28;20284;-70
2021/01/09 09:52:34;;;;;;;55.00;11.65;;;;;;;;;;5039529;28;20467;-70
2021/01/09 09:55:01;;;;;;;36.88;11.68;;;;;;;;;;5040867;28;20049;-70
2021/01/09 09:57:27;;;;;;;37.43;11.33;;;;;;;;;;5040024;28;20049;-70
2021/01/09 10:00:12;;;;;;;31.95;10.75;;;;;;;;;;5036096;28;20084;-70
2021/01/09 10:02:55;;;;;;;55.13;13.00;;;;;;;;;;5042214;28;20555;-70
2021/01/09 10:05:25;;;;;;;36.13;12.48;;;;;;;;;;5035032;28;20497;-70
2021/01/09 10:08:11;;;;;;;37.33;13.70;;;;;;;;;;5037067;28;22096;-70
2021/01/09 10:10:37;;;;;;;54.03;13.45;;;;;;;;;;5035927;28;20041;-70
2021/01/09 10:13:03;;;;;;;47.50;13.65;;;;;;;;;;5040396;28;20127;-70
2021/01/09 10:15:29;;;;;;;39.88;13.43;;;;;;;;;;5048392;28;20083;-70
2021/01/09 10:17:56;;;;;;;38.10;12.75;;;;;;;;;;5038720;28;20047;-70
2021/01/09 10:20:23;;;;;;;40.00;12.80;;;;;;;;;;5034562;28;20095;-70
2021/01/09 10:22:49;;;;;;;31.90;12.13;;;;;;;;;;5038520;28;20044;-70
2021/01/09 10:25:16;;;;;;;31.38;12.32;;;;;;;;;;5038539;28;20041;-70
2021/01/09 10:27:42;;;;;;;34.17;13.20;;;;;;;;;;5047416;28;20055;-70
2021/01/09 10:30:08;;;;;;;38.67;14.02;;;;;;;;;;5041614;28;20054;-70
2021/01/09 10:32:34;;;;;;;36.80;12.68;;;;;;;;;;5035314;28;20045;-70
2021/01/09 10:35:01;;;;;;;31.83;12.40;;;;;;;;;;5034998;28;20045;-70
2021/01/09 10:37:27;;;;;;;27.83;12.68;;;;;;;;;;5043395;28;20071;-70
2021/01/09 10:39:53;;;;;;;32.05;13.18;;;;;;;;;;5034384;28;20049;-70
2021/01/09 10:42:20;;;;;;;31.17;12.40;;;;;;;;;;5049149;28;20065;-70
2021/01/09 10:44:46;;;;;;;36.35;12.70;;;;;;;;;;5050090;28;20509;-71
2021/01/09 10:47:12;;;;;;;29.98;11.85;;;;;;;;;;5042333;28;20049;-70
2021/01/09 10:49:39;;;;;;;24.23;11.70;;;;;;;;;;5041360;28;20056;-70
2021/01/09 10:52:05;;;;;;;27.63;11.30;;;;;;;;;;5041177;28;20041;-70
2021/01/09 10:54:31;;;;;;;35.80;12.48;;;;;;;;;;5038331;28;20051;-70
2021/01/09 10:56:57;;;;;;;23.77;10.88;;;;;;;;;;5046594;28;20648;-70
2021/01/09 10:59:23;;;;;;;20.92;10.02;;;;;;;;;;5034207;28;20120;-70
2021/01/09 11:01:50;;;;;;;21.70;10.25;;;;;;;;;;5038444;28;20463;-70
2021/01/09 11:04:17;;;;;;;21.15;9.45;;;;;;;;;;5042751;28;20134;-70
2021/01/09 11:06:43;;;;;;;21.67;10.30;;;;;;;;;;5044290;28;20033;-70
2021/01/09 11:09:10;;;;;;;18.93;10.37;;;;;;;;;;5038357;28;20045;-70
2021/01/09 11:11:37;;;;;;;16.17;8.80;;;;;;;;;;5042552;28;20103;-70
2021/01/09 11:14:03;;;;;;;17.13;9.27;;;;;;;;;;5037132;28;20114;-70
2021/01/09 11:16:29;;;;;;;17.55;8.65;;;;;;;;;;5045737;28;20295;-70
2021/01/09 11:18:56;;;;;;;15.43;8.57;;;;;;;;;;5039519;28;20073;-70
2021/01/09 11:21:23;;;;;;;16.77;9.25;;;;;;;;;;5033040;28;20068;-70
2021/01/09 11:23:49;;;;;;;19.33;9.65;;;;;;;;;;5044139;28;20049;-72
2021/01/09 11:26:22;;;;;;;16.38;8.82;;;;;;;;;;5036042;28;20057;-69
2021/01/09 11:28:49;;;;;;;18.15;9.15;;;;;;;;;;5035861;28;20397;-69
2021/01/09 11:31:15;;;;;;;17.10;9.02;;;;;;;;;;5040370;28;20037;-69
2021/01/09 11:33:42;;;;;;;18.33;10.00;;;;;;;;;;5044059;28;20045;-69
2021/01/09 11:36:08;;;;;;;20.65;9.27;;;;;;;;;;5038556;28;20041;-70
2021/01/09 11:38:40;;;;;;;16.30;9.77;;;;;;;;;;5039391;28;20076;-69
2021/01/09 11:41:09;;;;;;;15.68;8.43;;;;;;;;;;5034705;28;20072;-70
2021/01/09 11:43:38;;;;;;;16.48;9.32;;;;;;;;;;5049733;28;20047;-70
2021/01/09 11:46:07;;;;;;;16.27;8.40;;;;;;;;;;5051600;28;20041;-70
2021/01/09 11:48:36;;;;;;;16.02;8.95;;;;;;;;;;5037017;28;20120;-69
2021/01/09 11:51:03;;;;;;;15.20;8.25;;;;;;;;;;5037201;28;20460;-69
2021/01/09 11:53:29;;;;;;;16.42;8.02;;;;;;;;;;5038350;28;20618;-69
2021/01/09 11:55:56;;;;;;;14.25;8.52;;;;;;;;;;5042688;28;20037;-70
2021/01/09 11:58:23;;;;;;;12.68;7.53;;;;;;;;;;5044681;28;20370;-69
2021/01/09 12:00:50;;;;;;;14.30;8.82;;;;;;;;;;5035504;28;20095;-69
2021/01/09 12:03:17;;;;;;;18.65;9.55;;;;;;;;;;5043956;28;20048;-70
2021/01/09 12:05:43;;;;;;;13.57;8.65;;;;;;;;;;5044106;28;20033;-69
2021/01/09 12:08:09;;;;;;;15.38;9.27;;;;;;;;;;5050000;28;20609;-69
2021/01/09 12:10:36;;;;;;;15.35;9.48;;;;;;;;;;5038638;28;20127;-69
2021/01/09 12:13:03;;;;;;;17.48;9.05;;;;;;;;;;5045871;28;20112;-70
2021/01/09 12:15:29;;;;;;;14.73;9.13;;;;;;;;;;5046094;28;20485;-70
2021/01/09 12:17:56;;;;;;;19.50;10.35;;;;;;;;;;5037757;28;20045;-70
2021/01/09 12:20:23;;;;;;;10.90;6.38;;;;;;;;;;5040076;28;20044;-70
2021/01/09 12:22:49;;;;;;;14.45;8.75;;;;;;;;;;5037088;28;20048;-70
2021/01/09 12:25:15;;;;;;;14.80;8.60;;;;;;;;;;5034121;28;20053;-69
2021/01/09 12:27:42;;;;;;;15.85;9.60;;;;;;;;;;5040508;28;20496;-69
2021/01/09 12:30:08;;;;;;;15.82;8.65;;;;;;;;;;5037182;28;20042;-70
2021/01/09 12:32:37;;;;;;;17.33;9.20;;;;;;;;;;5034375;28;20559;-70
2021/01/09 12:35:05;;;;;;;13.52;8.02;;;;;;;;;;5041043;28;20083;-70
2021/01/09 12:37:31;;;;;;;14.27;8.23;;;;;;;;;;5041508;28;20101;-70
2021/01/09 12:39:57;;;;;;;15.05;8.82;;;;;;;;;;5048858;28;20539;-70
2021/01/09 12:42:24;;;;;;;15.13;8.63;;;;;;;;;;5047604;28;20559;-70
2021/01/09 12:44:51;;;;;;;16.73;8.18;;;;;;;;;;5046899;28;20132;-71
2021/01/09 12:47:17;;;;;;;16.45;8.63;;;;;;;;;;5043662;28;20061;-69
2021/01/09 12:49:44;;;;;;;15.50;8.63;;;;;;;;;;5039527;28;20045;-70
2021/01/09 12:52:10;;;;;;;15.55;8.70;;;;;;;;;;5043866;28;20520;-69
2021/01/09 12:54:36;;;;;;;14.38;8.48;;;;;;;;;;5038387;28;20061;-69
2021/01/09 12:57:02;;;;;;;16.38;8.50;;;;;;;;;;5052356;28;20044;-70
2021/01/09 12:59:28;;;;;;;17.20;8.23;;;;;;;;;;5041809;28;20102;-70
2021/01/09 13:01:55;;;;;;;14.90;8.45;;;;;;;;;;5043780;28;20053;-70
2021/01/09 13:04:21;;;;;;;15.68;8.13;;;;;;;;;;5035701;28;20037;-70
2021/01/09 13:06:48;;;;;;;17.63;9.07;;;;;;;;;;5038237;28;20049;-70
2021/01/09 13:09:19;;;;;;;15.70;9.07;;;;;;;;;;5036948;28;20047;-70
2021/01/09 13:11:52;;;;;;;17.27;8.50;;;;;;;;;;5033280;28;20485;-69
2021/01/09 13:14:18;;;;;;;16.88;9.32;;;;;;;;;;5033948;28;20103;-70
2021/01/09 13:16:46;;;;;;;16.63;8.90;;;;;;;;;;5034352;28;20029;-70
2021/01/09 13:19:13;;;;;;;15.18;8.65;;;;;;;;;;5038380;28;20095;-70
2021/01/09 13:21:43;;;;;;;17.00;8.80;;;;;;;;;;5031078;28;20124;-70
2021/01/09 13:24:09;;;;;;;19.05;9.20;;;;;;;;;;5035222;28;20045;-70
2021/01/09 13:26:37;;;;;;;15.68;8.75;;;;;;;;;;5032572;28;20053;-70
2021/01/09 13:29:03;;;;;;;19.73;9.45;;;;;;;;;;5040515;28;20041;-70
2021/01/09 13:31:33;;;;;;;14.10;6.73;;;;;;;;;;5039096;28;20120;-70
2021/01/09 13:34:01;;;;;;;18.60;9.20;;;;;;;;;;5037609;28;20536;-70
2021/01/09 13:36:27;;;;;;;;;;;;;;;;;;5042086;28;20588;-70
2021/01/09 13:38:54;;;;;;;17.98;9.27;;;;;;;;;;5043756;28;19943;-70
2021/01/09 13:41:20;;;;;;;19.27;10.10;;;;;;;;;;5042810;28;20061;-70
2021/01/09 13:43:47;;;;;;;20.30;10.40;;;;;;;;;;5035816;28;20053;-70
2021/01/09 13:46:21;;;;;;;16.60;10.02;;;;;;;;;;5031080;28;20041;-70
2021/01/09 13:48:47;;;;;;;18.40;10.43;;;;;;;;;;5035356;28;20513;-70
2021/01/09 13:51:25;;;;;;;19.33;10.50;;;;;;;;;;5041418;28;20034;-70
2021/01/09 13:53:54;;;;;;;18.17;10.20;;;;;;;;;;5036848;28;20042;-70
2021/01/09 13:56:35;;;;;;;17.75;10.02;;;;;;;;;;5039197;28;20042;-70
2021/01/09 13:59:03;;;;;;;21.50;10.63;;;;;;;;;;5037538;28;20103;-70
2021/01/09 14:01:29;;;;;;;16.13;9.18;;;;;;;;;;5036475;28;20043;-70
2021/01/09 14:03:55;;;;;;;14.55;9.18;;;;;;;;;;5040126;28;20049;-70
2021/01/09 14:06:22;;;;;;;17.88;9.55;;;;;;;;;;5034865;28;20040;-70
2021/01/09 14:08:49;;;;;;;17.63;9.13;;;;;;;;;;5033157;28;20052;-70
2021/01/09 14:11:17;;;;;;;18.73;10.07;;;;;;;;;;5041595;28;20041;-70
2021/01/09 14:13:43;;;;;;;14.35;8.98;;;;;;;;;;5047899;28;20098;-70
2021/01/09 14:16:21;;;;;;;;;;;;;;;;;;5043294;28;20489;-70
2021/01/09 14:18:48;;;;;;;18.42;10.38;;;;;;;;;;5041712;28;20021;-70
2021/01/09 14:21:15;;;;;;;12.52;7.22;;;;;;;;;;5044565;28;20337;-70
2021/01/09 14:23:46;;;;;;;18.13;10.20;;;;;;;;;;5044234;28;20044;-70
2021/01/09 14:26:13;;;;;;;17.55;9.93;;;;;;;;;;5044630;28;20075;-71